Time;durP1;ratioP1;P1;durP2;ratioP2;P2;SDS_P1;SDS_P2;PMS_P1;PMS_P2;Temp;Humidity;BMP_temperature;BMP_pressure;BME280_temperature;BME280_humidity;BME280_pressure;Samples;Min_cycle;Max_cycle;Signal;HPM_P1;HPM_P2
2022/04/07 00:01:47;;;;;;;;;;;;;;;;;;2200368;59;1689;-70
2022/04/07 00:04:21;;;;;;;;;;;;;;;;;;2200724;67;1977;-70
2022/04/07 00:06:54;;;;;;;;;;;;;;;;;;2200570;67;1146;-70
2022/04/07 00:09:30;;;;;;;;;;;;;;;;;;2200947;67;1307;-71
2022/04/07 00:12:04;;;;;;;;;;;;;;;;;;2198939;59;1453;-71
2022/04/07 00:14:37;;;;;;;;;;;;;;;;;;2206454;59;1612;-71
2022/04/07 00:17:10;;;;;;;;;;;;;;;;;;2208725;66;1209;-71
2022/04/07 00:19:43;;;;;;;;;;;;;;;;;;2205934;59;2304;-70
2022/04/07 00:22:17;;;;;;;;;;;;;;;;;;2209191;66;1282;-70
2022/04/07 00:24:56;;;;;;;;;;;;;;;;;;2211826;66;1928;-70
2022/04/07 00:27:29;;;;;;;;;;;;;;;;;;2213904;66;1131;-71
2022/04/07 00:30:03;;;;;;;;;;;;;;;;;;2200930;59;1317;-70
2022/04/07 00:32:42;;;;;;;;;;;;;;;;;;2207642;66;1271;-70
2022/04/07 00:35:15;;;;;;;;;;;;;;;;;;2207678;59;1200;-70
2022/04/07 00:37:49;;;;;;;;;;;;;;;;;;2207609;66;1196;-70
2022/04/07 00:40:25;;;;;;;;;;;;;;;;;;2207057;58;3641;-69
2022/04/07 00:42:58;;;;;;;;;;;;;;;;;;2219972;58;1206;-69
2022/04/07 00:45:31;;;;;;;;;;;;;;;;;;2220146;58;1985;-69
2022/04/07 00:48:04;;;;;;;;;;;;;;;;;;2221761;58;1222;-70
2022/04/07 00:50:37;;;;;;;;;;;;;;;;;;2221217;58;1254;-69
2022/04/07 00:53:10;;;;;;;;;;;;;;;;;;2221396;58;1172;-69
2022/04/07 00:55:46;;;;;;;;;;;;;;;;;;2218088;66;1230;-69
2022/04/07 00:58:20;;;;;;;;;;;;;;;;;;2221298;66;1210;-69
2022/04/07 01:00:54;;;;;;;;;;;;;;;;;;2220878;58;1561;-69
2022/04/07 01:03:27;;;;;;;;;;;;;;;;;;2221214;59;1272;-69
2022/04/07 01:06:00;;;;;;;;;;;;;;;;;;2217226;66;1240;-69
2022/04/07 01:08:34;;;;;;;;;;;;;;;;;;2221735;66;1203;-69
2022/04/07 01:11:10;;;;;;;;;;;;;;;;;;2221611;66;1265;-70
2022/04/07 01:13:45;;;;;;;;;;;;;;;;;;2219956;58;1324;-69
2022/04/07 01:16:18;;;;;;;;;;;;;;;;;;2221269;58;1173;-69
2022/04/07 01:18:51;;;;;;;;;;;;;;;;;;2221801;58;2003;-69
2022/04/07 01:21:25;;;;;;;;;;;;;;;;;;2219673;58;1579;-69
2022/04/07 01:24:02;;;;;;;;;;;;;;;;;;2221184;66;1990;-69
2022/04/07 01:26:40;;;;;;;;;;;;;;;;;;2221071;60;1159;-69
2022/04/07 01:29:14;;;;;;;;;;;;;;;;;;2220787;66;1267;-69
2022/04/07 01:31:47;;;;;;;;;;;;;;;;;;2220843;66;1284;-69
2022/04/07 01:34:21;;;;;;;;;;;;;;;;;;2220928;66;1219;-69
2022/04/07 01:36:55;;;;;;;;;;;;;;;;;;2220946;58;1402;-69
2022/04/07 01:39:28;;;;;;;;;;;;;;;;;;2221406;66;1244;-68
2022/04/07 01:42:04;;;;;;;;;;;;;;;;;;2220394;58;1697;-69
2022/04/07 01:44:41;;;;;;;;;;;;;;;;;;2220695;66;1927;-69
2022/04/07 01:47:15;;;;;;;;;;;;;;;;;;2221157;58;1282;-69
2022/04/07 01:49:49;;;;;;;;;;;;;;;;;;2221033;59;1234;-69
2022/04/07 01:52:23;;;;;;;;;;;;;;;;;;2221353;66;1139;-69
2022/04/07 01:54:56;;;;;;;;;;;;;;;;;;2220452;66;1257;-69
2022/04/07 01:57:32;;;;;;;;;;;;;;;;;;2221370;66;1105;-69
2022/04/07 02:00:06;;;;;;;;;;;;;;;;;;2220780;58;1556;-69
2022/04/07 02:02:39;;;;;;;;;;;;;;;;;;2220661;58;1573;-69
2022/04/07 02:05:13;;;;;;;;;;;;;;;;;;2220224;59;2030;-69
2022/04/07 02:07:46;;;;;;;;;;;;;;;;;;2220990;59;1210;-69
2022/04/07 02:10:21;;;;;;;;;;;;;;;;;;2221466;59;1179;-69
2022/04/07 02:12:57;;;;;;;;;;;;;;;;;;2220701;58;1391;-69
2022/04/07 02:15:30;;;;;;;;;;;;;;;;;;2220732;58;1178;-70
2022/04/07 02:18:04;;;;;;;;;;;;;;;;;;2221975;66;1131;-70
2022/04/07 02:20:37;;;;;;;;;;;;;;;;;;2220744;58;1963;-69
2022/04/07 02:23:10;;;;;;;;;;;;;;;;;;2221035;66;1123;-69
2022/04/07 02:25:43;;;;;;;;;;;;;;;;;;2221444;66;1924;-69
2022/04/07 02:28:19;;;;;;;;;;;;;;;;;;2221183;66;1265;-70
2022/04/07 02:30:52;;;;;;;;;;;;;;;;;;2221145;58;1388;-70
2022/04/07 02:33:25;;;;;;;;;;;;;;;;;;2221384;58;1248;-69
2022/04/07 02:35:58;;;;;;;;;;;;;;;;;;2220742;59;1245;-69
2022/04/07 02:38:31;;;;;;;;;;;;;;;;;;2221166;66;1225;-69
2022/04/07 02:41:05;;;;;;;;;;;;;;;;;;2220420;58;1727;-69
2022/04/07 02:43:41;;;;;;;;;;;;;;;;;;2217393;66;1233;-69
2022/04/07 02:46:14;;;;;;;;;;;;;;;;;;2220942;58;1983;-70
2022/04/07 02:48:47;;;;;;;;;;;;;;;;;;2220102;66;1794;-69
2022/04/07 02:51:20;;;;;;;;;;;;;;;;;;2220523;58;1317;-69
2022/04/07 02:53:57;;;;;;;;;;;;;;;;;;2220621;66;1193;-70
2022/04/07 02:56:31;;;;;;;;;;;;;;;;;;2220830;66;1172;-70
2022/04/07 02:59:07;;;;;;;;;;;;;;;;;;2220491;66;1097;-70
2022/04/07 03:01:40;;;;;;;;;;;;;;;;;;2220123;58;1743;-69
2022/04/07 03:04:13;;;;;;;;;;;;;;;;;;2217662;66;1927;-69
2022/04/07 03:06:46;;;;;;;;;;;;;;;;;;2220856;58;1247;-70
2022/04/07 03:09:19;;;;;;;;;;;;;;;;;;2220496;58;1156;-69
2022/04/07 03:11:52;;;;;;;;;;;;;;;;;;2219745;58;1543;-70
2022/04/07 03:14:29;;;;;;;;;;;;;;;;;;2220774;66;1884;-69
2022/04/07 03:17:02;;;;;;;;;;;;;;;;;;2220549;59;1136;-70
2022/04/07 03:19:35;;;;;;;;;;;;;;;;;;2221452;58;1846;-70
2022/04/07 03:22:08;;;;;;;;;;;;;;;;;;2221036;58;1965;-70
2022/04/07 03:24:41;;;;;;;;;;;;;;;;;;2221065;59;1996;-69
2022/04/07 03:27:15;;;;;;;;;;;;;;;;;;2221105;59;1276;-69
2022/04/07 03:29:50;;;;;;;;;;;;;;;;;;2220813;58;1281;-70
2022/04/07 03:32:24;;;;;;;;;;;;;;;;;;2221435;58;1336;-69
2022/04/07 03:34:57;;;;;;;;;;;;;;;;;;2220495;59;1239;-69
2022/04/07 03:37:30;;;;;;;;;;;;;;;;;;2221678;66;1125;-69
2022/04/07 03:40:03;;;;;;;;;;;;;;;;;;2220244;58;1772;-69
2022/04/07 03:42:36;;;;;;;;;;;;;;;;;;2219771;58;1358;-69
2022/04/07 03:45:12;;;;;;;;;;;;;;;;;;2220348;59;1940;-70
2022/04/07 03:47:46;;;;;;;;;;;;;;;;;;2219546;58;1294;-69
2022/04/07 03:50:19;;;;;;;;;;;;;;;;;;2219433;59;1241;-69
2022/04/07 03:52:52;;;;;;;;;;;;;;;;;;2220121;58;1748;-70
2022/04/07 03:55:25;;;;;;;;;;;;;;;;;;2219522;58;1708;-69
2022/04/07 03:57:58;;;;;;;;;;;;;;;;;;2219082;66;1031;-70
2022/04/07 04:00:34;;;;;;;;;;;;;;;;;;2220058;58;1571;-70
2022/04/07 04:03:07;;;;;;;;;;;;;;;;;;2220217;58;1612;-69
2022/04/07 04:05:40;;;;;;;;;;;;;;;;;;2220625;59;2080;-70
2022/04/07 04:08:13;;;;;;;;;;;;;;;;;;2216696;58;2017;-70
2022/04/07 04:10:46;;;;;;;;;;;;;;;;;;2213695;58;2609;-69
2022/04/07 04:13:20;;;;;;;;;;;;;;;;;;2220588;58;1316;-70
2022/04/07 04:15:56;;;;;;;;;;;;;;;;;;2219164;66;1095;-70
2022/04/07 04:18:29;;;;;;;;;;;;;;;;;;2219119;58;2661;-70
2022/04/07 04:21:02;;;;;;;;;;;;;;;;;;2213232;58;2419;-69
2022/04/07 04:23:35;;;;;;;;;;;;;;;;;;2219120;58;2165;-70
2022/04/07 04:26:08;;;;;;;;;;;;;;;;;;2220879;59;1992;-70
2022/04/07 04:28:41;;;;;;;;;;;;;;;;;;2219750;58;2005;-70
2022/04/07 04:31:17;;;;;;;;;;;;;;;;;;2220931;60;1300;-70
2022/04/07 04:33:50;;;;;;;;;;;;;;;;;;2220225;66;1253;-70
2022/04/07 04:36:24;;;;;;;;;;;;;;;;;;2220391;66;1244;-70
2022/04/07 04:38:57;;;;;;;;;;;;;;;;;;2220983;58;1842;-70
2022/04/07 04:41:30;;;;;;;;;;;;;;;;;;2216196;58;2213;-70
2022/04/07 04:44:03;;;;;;;;;;;;;;;;;;2219635;66;1108;-70
2022/04/07 04:46:39;;;;;;;;;;;;;;;;;;2219959;66;1948;-70
2022/04/07 04:49:12;;;;;;;;;;;;;;;;;;2220445;58;1288;-70
2022/04/07 04:51:45;;;;;;;;;;;;;;;;;;2220243;58;1259;-70
2022/04/07 04:54:18;;;;;;;;;;;;;;;;;;2220675;59;1195;-69
2022/04/07 04:56:52;;;;;;;;;;;;;;;;;;2216997;59;2355;-70
2022/04/07 04:59:25;;;;;;;;;;;;;;;;;;2220644;59;1243;-70
2022/04/07 05:02:01;;;;;;;;;;;;;;;;;;2219621;58;1863;-70
2022/04/07 05:04:35;;;;;;;;;;;;;;;;;;2220781;58;1212;-71
2022/04/07 05:07:08;;;;;;;;;;;;;;;;;;2220246;58;1940;-70
2022/04/07 05:09:41;;;;;;;;;;;;;;;;;;2220590;58;1601;-70
2022/04/07 05:12:15;;;;;;;;;;;;;;;;;;2221662;59;1310;-70
2022/04/07 05:14:48;;;;;;;;;;;;;;;;;;2219440;58;1839;-70
2022/04/07 05:17:24;;;;;;;;;;;;;;;;;;2221074;59;1249;-70
2022/04/07 05:19:57;;;;;;;;;;;;;;;;;;2217869;58;2552;-69
2022/04/07 05:22:30;;;;;;;;;;;;;;;;;;2215665;59;1405;-70
2022/04/07 05:25:03;;;;;;;;;;;;;;;;;;2220014;58;2282;-70
2022/04/07 05:27:36;;;;;;;;;;;;;;;;;;2219586;58;2612;-69
2022/04/07 05:30:12;;;;;;;;;;;;;;;;;;2217985;59;2063;-70
2022/04/07 05:32:49;;;;;;;;;;;;;;;;;;2217794;59;1334;-70
2022/04/07 05:35:26;;;;;;;;;;;;;;;;;;2220257;58;1239;-71
2022/04/07 05:37:59;;;;;;;;;;;;;;;;;;2220268;66;2508;-70
2022/04/07 05:40:33;;;;;;;;;;;;;;;;;;2219276;58;1933;-70
2022/04/07 05:43:06;;;;;;;;;;;;;;;;;;2220812;58;1359;-70
2022/04/07 05:45:42;;;;;;;;;;;;;;;;;;2220672;58;1928;-70
2022/04/07 05:48:17;;;;;;;;;;;;;;;;;;2220508;58;1354;-70
2022/04/07 05:50:51;;;;;;;;;;;;;;;;;;2221032;58;1229;-70
2022/04/07 05:53:24;;;;;;;;;;;;;;;;;;2220904;66;1132;-70
2022/04/07 05:55:59;;;;;;;;;;;;;;;;;;2221165;59;1204;-70
2022/04/07 05:58:32;;;;;;;;;;;;;;;;;;2220075;58;1681;-70
2022/04/07 06:01:05;;;;;;;;;;;;;;;;;;2215954;58;1831;-70
2022/04/07 06:03:41;;;;;;;;;;;;;;;;;;2220594;59;1204;-69
2022/04/07 06:06:14;;;;;;;;;;;;;;;;;;2221000;59;1932;-70
2022/04/07 06:08:47;;;;;;;;;;;;;;;;;;2220091;59;2223;-70
2022/04/07 06:11:20;;;;;;;;;;;;;;;;;;2221158;58;1806;-70
2022/04/07 06:13:53;;;;;;;;;;;;;;;;;;2218098;58;1769;-70
2022/04/07 06:16:26;;;;;;;;;;;;;;;;;;2219408;58;1210;-70
2022/04/07 06:19:02;;;;;;;;;;;;;;;;;;2220176;58;1724;-70
2022/04/07 06:21:35;;;;;;;;;;;;;;;;;;2219407;58;1713;-70
2022/04/07 06:24:09;;;;;;;;;;;;;;;;;;2219768;59;2333;-70
2022/04/07 06:26:42;;;;;;;;;;;;;;;;;;2219948;59;2895;-70
2022/04/07 06:29:15;;;;;;;;;;;;;;;;;;2220857;58;1270;-70
2022/04/07 06:31:48;;;;;;;;;;;;;;;;;;2220717;58;1694;-70
2022/04/07 06:34:24;;;;;;;;;;;;;;;;;;2219679;58;1651;-70
2022/04/07 06:36:57;;;;;;;;;;;;;;;;;;2219291;58;1635;-70
2022/04/07 06:39:30;;;;;;;;;;;;;;;;;;2221095;59;1257;-70
2022/04/07 06:42:03;;;;;;;;;;;;;;;;;;2218136;54;3559;-71
2022/04/07 06:44:39;;;;;;;;;;;;;;;;;;2218502;58;1730;-71
2022/04/07 06:47:13;;;;;;;;;;;;;;;;;;2220501;58;1981;-71
2022/04/07 06:49:50;;;;;;;;;;;;;;;;;;2219864;58;1597;-71
2022/04/07 06:52:23;;;;;;;;;;;;;;;;;;2218272;59;1257;-71
2022/04/07 06:54:57;;;;;;;;;;;;;;;;;;2219748;58;1114;-71
2022/04/07 06:57:30;;;;;;;;;;;;;;;;;;2219965;58;1334;-71
2022/04/07 07:00:03;;;;;;;;;;;;;;;;;;2216486;66;1417;-71
2022/04/07 07:02:36;;;;;;;;;;;;;;;;;;2219180;58;2082;-71
2022/04/07 07:05:13;;;;;;;;;;;;;;;;;;2220128;58;1207;-71
2022/04/07 07:07:46;;;;;;;;;;;;;;;;;;2220176;58;1931;-71
2022/04/07 07:10:20;;;;;;;;;;;;;;;;;;2220866;66;1269;-71
2022/04/07 07:12:54;;;;;;;;;;;;;;;;;;2220110;58;1367;-72
2022/04/07 07:15:28;;;;;;;;;;;;;;;;;;2218414;58;1349;-71
2022/04/07 07:18:01;;;;;;;;;;;;;;;;;;2218326;59;1329;-71
2022/04/07 07:20:37;;;;;;;;;;;;;;;;;;2219040;58;1943;-71
2022/04/07 07:23:11;;;;;;;;;;;;;;;;;;2219929;66;1111;-72
2022/04/07 07:25:44;;;;;;;;;;;;;;;;;;2219100;58;2599;-71
2022/04/07 07:28:17;;;;;;;;;;;;;;;;;;2220348;58;2171;-71
2022/04/07 07:30:50;;;;;;;;;;;;;;;;;;2220441;58;1415;-70
2022/04/07 07:33:24;;;;;;;;;;;;;;;;;;2219505;58;1604;-71
2022/04/07 07:36:00;;;;;;;;;;;;;;;;;;2219823;58;1776;-71
2022/04/07 07:38:33;;;;;;;;;;;;;;;;;;2219703;58;1568;-72
2022/04/07 07:41:06;;;;;;;;;;;;;;;;;;2219794;58;1677;-71
2022/04/07 07:43:39;;;;;;;;;;;;;;;;;;2216190;58;1444;-71
2022/04/07 07:46:13;;;;;;;;;;;;;;;;;;2220749;66;1987;-71
2022/04/07 07:48:46;;;;;;;;;;;;;;;;;;2221420;58;1363;-71
2022/04/07 07:51:22;;;;;;;;;;;;;;;;;;2220537;58;1625;-71
2022/04/07 07:53:55;;;;;;;;;;;;;;;;;;2220427;59;1048;-71
2022/04/07 07:56:28;;;;;;;;;;;;;;;;;;2220750;58;1182;-72
2022/04/07 07:59:01;;;;;;;;;;;;;;;;;;2221040;66;1062;-72
2022/04/07 08:01:34;;;;;;;;;;;;;;;;;;2222256;58;1746;-71
2022/04/07 08:04:07;;;;;;;;;;;;;;;;;;2221760;66;1161;-71
2022/04/07 08:06:44;;;;;;;;;;;;;;;;;;2220264;58;1927;-72
2022/04/07 08:09:17;;;;;;;;;;;;;;;;;;2220951;66;1278;-71
2022/04/07 08:11:50;;;;;;;;;;;;;;;;;;2220619;58;1191;-71
2022/04/07 08:14:23;;;;;;;;;;;;;;;;;;2221155;58;1574;-71
2022/04/07 08:16:56;;;;;;;;;;;;;;;;;;2221216;58;1303;-71
2022/04/07 08:19:30;;;;;;;;;;;;;;;;;;2222561;58;1934;-72
2022/04/07 08:22:06;;;;;;;;;;;;;;;;;;2221236;58;1588;-71
2022/04/07 08:24:39;;;;;;;;;;;;;;;;;;2221145;59;1195;-70
2022/04/07 08:27:12;;;;;;;;;;;;;;;;;;2215888;59;2630;-71
2022/04/07 08:29:45;;;;;;;;;;;;;;;;;;2220504;58;2555;-71
2022/04/07 08:32:18;;;;;;;;;;;;;;;;;;2220962;58;1281;-71
2022/04/07 08:34:52;;;;;;;;;;;;;;;;;;2221123;58;1396;-71
2022/04/07 08:37:28;;;;;;;;;;;;;;;;;;2221529;66;1328;-71
2022/04/07 08:40:05;;;;;;;;;;;;;;;;;;2221866;66;1310;-71
2022/04/07 08:42:39;;;;;;;;;;;;;;;;;;2220239;58;1965;-71
2022/04/07 08:45:12;;;;;;;;;;;;;;;;;;2221610;66;1143;-71
2022/04/07 08:47:48;;;;;;;;;;;;;;;;;;2221025;58;1999;-71
2022/04/07 08:50:24;;;;;;;;;;;;;;;;;;2221151;58;1560;-72
2022/04/07 08:53:00;;;;;;;;;;;;;;;;;;2221580;58;1259;-70
2022/04/07 08:55:34;;;;;;;;;;;;;;;;;;2217167;59;1921;-71
2022/04/07 08:58:10;;;;;;;;;;;;;;;;;;2221823;66;1189;-71
2022/04/07 09:00:43;;;;;;;;;;;;;;;;;;2221405;58;1859;-71
2022/04/07 09:03:16;;;;;;;;;;;;;;;;;;2219720;58;1163;-71
2022/04/07 09:05:56;;;;;;;;;;;;;;;;;;2220845;66;1230;-71
2022/04/07 09:08:36;;;;;;;;;;;;;;;;;;2220696;66;1924;-71
2022/04/07 09:11:10;;;;;;;;;;;;;;;;;;2221360;66;1285;-72
2022/04/07 09:13:44;;;;;;;;;;;;;;;;;;2220712;58;1432;-71
2022/04/07 09:16:18;;;;;;;;;;;;;;;;;;2220645;58;1213;-72
2022/04/07 09:18:52;;;;;;;;;;;;;;;;;;2217778;58;1939;-71
2022/04/07 09:21:27;;;;;;;;;;;;;;;;;;2220762;58;2186;-71
2022/04/07 09:24:05;;;;;;;;;;;;;;;;;;2221029;58;1229;-71
2022/04/07 09:26:39;;;;;;;;;;;;;;;;;;2220552;58;2591;-71
2022/04/07 09:29:14;;;;;;;;;;;;;;;;;;2219512;58;2622;-71
2022/04/07 09:31:53;;;;;;;;;;;;;;;;;;2216454;66;1629;-72
2022/04/07 09:34:31;;;;;;;;;;;;;;;;;;2221177;66;1229;-71
2022/04/07 09:37:05;;;;;;;;;;;;;;;;;;2221184;58;1673;-70
2022/04/07 09:39:44;;;;;;;;;;;;;;;;;;2220793;66;1196;-71
2022/04/07 09:42:25;;;;;;;;;;;;;;;;;;2222163;58;2128;-71
2022/04/07 09:45:01;;;;;;;;;;;;;;;;;;2219710;58;1334;-71
2022/04/07 09:47:38;;;;;;;;;;;;;;;;;;2221474;58;1953;-71
2022/04/07 09:50:22;;;;;;;;;;;;;;;;;;2220735;58;1496;-70
2022/04/07 09:52:58;;;;;;;;;;;;;;;;;;2221139;59;1137;-70
2022/04/07 09:55:37;;;;;;;;;;;;;;;;;;2220265;66;1109;-71
2022/04/07 09:58:12;;;;;;;;;;;;;;;;;;2221015;66;1195;-71
2022/04/07 10:00:46;;;;;;;;;;;;;;;;;;2221057;58;1746;-71
2022/04/07 10:03:19;;;;;;;;;;;;;;;;;;2220673;58;1195;-70
2022/04/07 10:05:53;;;;;;;;;;;;;;;;;;2220103;66;1097;-71
2022/04/07 10:08:26;;;;;;;;;;;;;;;;;;2220449;58;1941;-70
2022/04/07 10:11:03;;;;;;;;;;;;;;;;;;2220214;58;1737;-71
2022/04/07 10:13:39;;;;;;;;;;;;;;;;;;2220639;66;1364;-71
2022/04/07 10:16:12;;;;;;;;;;;;;;;;;;2221979;58;1249;-72
2022/04/07 10:18:49;;;;;;;;;;;;;;;;;;2221071;58;1824;-71
2022/04/07 10:21:33;;;;;;;;;;;;;;;;;;2219711;58;1723;-70
2022/04/07 10:24:13;;;;;;;;;;;;;;;;;;2221412;66;1262;-71
2022/04/07 10:26:49;;;;;;;;;;;;;;;;;;2219974;66;1928;-71
2022/04/07 10:29:24;;;;;;;;;;;;;;;;;;2219346;58;2726;-71
2022/04/07 10:32:18;;;;;;;;;;;;;;;;;;2219650;66;1269;-71
2022/04/07 10:35:00;;;;;;;;;;;;;;;;;;2220099;58;1124;-71
2022/04/07 10:37:34;;;;;;;;;;;;;;;;;;2221464;59;1326;-70
2022/04/07 10:40:26;;;;;;;;;;;;;;;;;;2219829;58;1546;-70
2022/04/07 10:43:18;;;;;;;;;;;;;;;;;;2220152;58;1293;-71
2022/04/07 10:45:53;;;;;;;;;;;;;;;;;;2217632;66;1194;-71
2022/04/07 10:48:28;;;;;;;;;;;;;;;;;;2219744;58;1953;-71
2022/04/07 10:51:03;;;;;;;;;;;;;;;;;;2220792;66;1230;-71
2022/04/07 10:53:36;;;;;;;;;;;;;;;;;;2220459;66;1220;-71
2022/04/07 10:56:11;;;;;;;;;;;;;;;;;;2220703;58;1516;-71
2022/04/07 10:58:49;;;;;;;;;;;;;;;;;;2220610;58;1185;-71
2022/04/07 11:01:53;;;;;;;;;;;;;;;;;;2220935;58;1726;-70
2022/04/07 11:04:33;;;;;;;;;;;;;;;;;;2219960;59;1163;-71
2022/04/07 11:07:14;;;;;;;;;;;;;;;;;;2220268;59;2000;-70
2022/04/07 11:10:11;;;;;;;;;;;;;;;;;;2220584;58;1466;-70
2022/04/07 11:12:46;;;;;;;;;;;;;;;;;;2219772;58;1608;-71
2022/04/07 11:15:28;;;;;;;;;;;;;;;;;;2219476;59;1322;-70
2022/04/07 11:18:07;;;;;;;;;;;;;;;;;;2220717;66;1141;-71
2022/04/07 11:21:01;;;;;;;;;;;;;;;;;;2221381;58;1844;-70
2022/04/07 11:23:44;;;;;;;;;;;;;;;;;;2219563;59;1079;-71
2022/04/07 11:26:22;;;;;;;;;;;;;;;;;;2220964;58;1255;-70
2022/04/07 11:29:07;;;;;;;;;;;;;;;;;;2219665;58;2565;-72
2022/04/07 11:31:51;;;;;;;;;;;;;;;;;;2219047;59;2508;-71
2022/04/07 11:35:00;;;;;;;;;;;;;;;;;;2220772;58;2531;-71
2022/04/07 11:37:40;;;;;;;;;;;;;;;;;;2212149;59;2146;-71
2022/04/07 11:40:14;;;;;;;;;;;;;;;;;;2212552;59;1409;-71
2022/04/07 11:42:51;;;;;;;;;;;;;;;;;;2213539;58;1967;-72
2022/04/07 11:45:32;;;;;;;;;;;;;;;;;;2220576;59;1138;-71
2022/04/07 11:48:12;;;;;;;;;;;;;;;;;;2220861;58;1977;-71
2022/04/07 11:50:45;;;;;;;;;;;;;;;;;;2220596;59;1252;-71
2022/04/07 11:53:18;;;;;;;;;;;;;;;;;;2216690;66;1418;-71
2022/04/07 11:55:52;;;;;;;;;;;;;;;;;;2220003;58;1278;-71
2022/04/07 11:58:25;;;;;;;;;;;;;;;;;;2220391;58;1673;-71
2022/04/07 12:01:07;;;;;;;;;;;;;;;;;;2220204;58;1683;-70
2022/04/07 12:03:43;;;;;;;;;;;;;;;;;;2220111;58;1688;-72
2022/04/07 12:06:17;;;;;;;;;;;;;;;;;;2221157;58;1694;-71
2022/04/07 12:08:50;;;;;;;;;;;;;;;;;;2221949;58;1934;-71
2022/04/07 12:11:24;;;;;;;;;;;;;;;;;;2220441;58;1537;-71
2022/04/07 12:13:58;;;;;;;;;;;;;;;;;;2219606;66;1289;-71
2022/04/07 12:16:31;;;;;;;;;;;;;;;;;;2221424;58;1685;-71
2022/04/07 12:19:07;;;;;;;;;;;;;;;;;;2220932;58;1902;-71
2022/04/07 12:21:54;;;;;;;;;;;;;;;;;;2220414;58;1729;-70
2022/04/07 12:24:27;;;;;;;;;;;;;;;;;;2220230;66;1168;-71
2022/04/07 12:27:01;;;;;;;;;;;;;;;;;;2218764;58;1431;-71
2022/04/07 12:29:35;;;;;;;;;;;;;;;;;;2217935;58;2485;-71
2022/04/07 12:32:09;;;;;;;;;;;;;;;;;;2218284;59;2609;-71
2022/04/07 12:34:58;;;;;;;;;;;;;;;;;;2219741;58;1295;-72
2022/04/07 12:37:33;;;;;;;;;;;;;;;;;;2218663;59;1282;-71
2022/04/07 12:40:07;;;;;;;;;;;;;;;;;;2218626;66;1105;-71
2022/04/07 12:42:51;;;;;;;;;;;;;;;;;;2202945;54;3673;-74
2022/04/07 12:45:24;;;;;;;;;;;;;;;;;;2194841;59;1051;-74
2022/04/07 12:48:04;;;;;;;;;;;;;;;;;;2197142;59;1950;-74
2022/04/07 12:50:41;;;;;;;;;;;;;;;;;;2197975;59;1113;-73
2022/04/07 12:53:29;;;;;;;;;;;;;;;;;;2201077;59;1274;-74
2022/04/07 12:56:03;;;;;;;;;;;;;;;;;;2199001;59;1053;-74
2022/04/07 12:58:36;;;;;;;;;;;;;;;;;;2209033;59;1852;-74
2022/04/07 13:01:09;;;;;;;;;;;;;;;;;;2198255;59;1683;-74
2022/04/07 13:03:54;;;;;;;;;;;;;;;;;;2198087;59;1350;-74
2022/04/07 13:06:30;;;;;;;;;;;;;;;;;;2200608;59;1167;-75
2022/04/07 13:09:03;;;;;;;;;;;;;;;;;;2210738;59;1939;-74
2022/04/07 13:11:38;;;;;;;;;;;;;;;;;;2199336;59;1710;-74
2022/04/07 13:14:12;;;;;;;;;;;;;;;;;;2200939;59;1528;-74
2022/04/07 13:16:45;;;;;;;;;;;;;;;;;;2200291;59;1213;-74
2022/04/07 13:19:18;;;;;;;;;;;;;;;;;;2199450;59;1891;-73
2022/04/07 13:21:54;;;;;;;;;;;;;;;;;;2199430;59;1647;-73
2022/04/07 13:24:27;;;;;;;;;;;;;;;;;;2200125;59;1195;-74
2022/04/07 13:27:01;;;;;;;;;;;;;;;;;;2200002;59;1184;-74
2022/04/07 13:29:36;;;;;;;;;;;;;;;;;;2200050;60;1936;-74
2022/04/07 13:32:09;;;;;;;;;;;;;;;;;;2209855;59;2541;-73
2022/04/07 13:34:43;;;;;;;;;;;;;;;;;;2199327;67;2926;-73
2022/04/07 13:37:18;;;;;;;;;;;;;;;;;;2199991;59;1755;-74
2022/04/07 13:39:52;;;;;;;;;;;;;;;;;;2200189;59;1673;-74
2022/04/07 13:42:25;;;;;;;;;;;;;;;;;;2202214;59;1517;-74
2022/04/07 13:44:59;;;;;;;;;;;;;;;;;;2203393;59;1235;-74
2022/04/07 13:47:32;;;;;;;;;;;;;;;;;;2204681;59;1372;-73
2022/04/07 13:50:05;;;;;;;;;;;;;;;;;;2203499;59;1932;-74
2022/04/07 13:52:41;;;;;;;;;;;;;;;;;;2201834;66;1145;-74
2022/04/07 13:55:14;;;;;;;;;;;;;;;;;;2203149;59;1739;-74
2022/04/07 13:57:48;;;;;;;;;;;;;;;;;;2203344;59;1179;-74
2022/04/07 14:00:21;;;;;;;;;;;;;;;;;;2204005;59;1129;-74
2022/04/07 14:02:54;;;;;;;;;;;;;;;;;;2200323;59;1678;-74
2022/04/07 14:05:27;;;;;;;;;;;;;;;;;;2199845;59;1132;-74
2022/04/07 14:08:03;;;;;;;;;;;;;;;;;;2200063;67;1929;-74
2022/04/07 14:10:37;;;;;;;;;;;;;;;;;;2199962;67;1105;-74
2022/04/07 14:13:10;;;;;;;;;;;;;;;;;;2211321;59;1369;-74
2022/04/07 14:15:45;;;;;;;;;;;;;;;;;;2199040;59;1599;-74
2022/04/07 14:18:18;;;;;;;;;;;;;;;;;;2199590;59;1086;-73
2022/04/07 14:20:52;;;;;;;;;;;;;;;;;;2211478;59;2040;-74
2022/04/07 14:23:28;;;;;;;;;;;;;;;;;;2199302;59;1701;-73
2022/04/07 14:26:01;;;;;;;;;;;;;;;;;;2199503;59;1867;-74
2022/04/07 14:28:34;;;;;;;;;;;;;;;;;;2199878;67;1975;-74
2022/04/07 14:31:07;;;;;;;;;;;;;;;;;;2211839;59;1532;-75
2022/04/07 14:33:41;;;;;;;;;;;;;;;;;;2198356;59;2851;-77
2022/04/07 14:36:14;;;;;;;;;;;;;;;;;;2199647;67;1121;-74
2022/04/07 14:38:50;;;;;;;;;;;;;;;;;;2200475;67;1313;-73
2022/04/07 14:41:23;;;;;;;;;;;;;;;;;;2200014;59;1642;-74
2022/04/07 14:43:56;;;;;;;;;;;;;;;;;;2211453;67;2304;-74
2022/04/07 14:46:29;;;;;;;;;;;;;;;;;;2200020;67;1202;-76
2022/04/07 14:49:03;;;;;;;;;;;;;;;;;;2199952;59;1992;-74
2022/04/07 14:51:36;;;;;;;;;;;;;;;;;;2200522;59;1251;-74
2022/04/07 14:54:12;;;;;;;;;;;;;;;;;;2200073;67;1199;-74
2022/04/07 14:56:45;;;;;;;;;;;;;;;;;;2199294;59;1780;-74
2022/04/07 14:59:18;;;;;;;;;;;;;;;;;;2199884;59;1730;-75
2022/04/07 15:01:51;;;;;;;;;;;;;;;;;;2198152;59;1653;-74
2022/04/07 15:04:25;;;;;;;;;;;;;;;;;;2199755;59;1274;-74
2022/04/07 15:06:58;;;;;;;;;;;;;;;;;;2199576;59;1194;-75
2022/04/07 15:09:34;;;;;;;;;;;;;;;;;;2210794;59;1927;-74
2022/04/07 15:12:08;;;;;;;;;;;;;;;;;;2199721;59;1551;-75
2022/04/07 15:14:41;;;;;;;;;;;;;;;;;;2199004;67;1201;-74
2022/04/07 15:17:15;;;;;;;;;;;;;;;;;;2199962;67;1113;-74
2022/04/07 15:19:48;;;;;;;;;;;;;;;;;;2199779;59;1925;-74
2022/04/07 15:22:21;;;;;;;;;;;;;;;;;;2199908;59;1542;-74
2022/04/07 15:24:57;;;;;;;;;;;;;;;;;;2200186;59;1282;-77
2022/04/07 15:27:30;;;;;;;;;;;;;;;;;;2198571;59;1876;-74
2022/04/07 15:30:03;;;;;;;;;;;;;;;;;;2200183;59;1992;-74
2022/04/07 15:32:36;;;;;;;;;;;;;;;;;;2199589;67;2579;-74
2022/04/07 15:35:10;;;;;;;;;;;;;;;;;;2198245;59;2466;-74
2022/04/07 15:37:44;;;;;;;;;;;;;;;;;;2199527;59;1360;-74
2022/04/07 15:40:20;;;;;;;;;;;;;;;;;;2199879;59;1256;-73
2022/04/07 15:42:53;;;;;;;;;;;;;;;;;;2199801;59;1693;-74
2022/04/07 15:45:26;;;;;;;;;;;;;;;;;;2199152;59;2218;-74
2022/04/07 15:47:59;;;;;;;;;;;;;;;;;;2197025;59;1249;-74
2022/04/07 15:50:33;;;;;;;;;;;;;;;;;;2199711;59;1941;-73
2022/04/07 15:53:07;;;;;;;;;;;;;;;;;;2199324;67;1259;-74
2022/04/07 15:55:44;;;;;;;;;;;;;;;;;;2198816;59;1682;-73
2022/04/07 15:58:17;;;;;;;;;;;;;;;;;;2199012;59;1152;-73
2022/04/07 16:00:50;;;;;;;;;;;;;;;;;;2200218;59;1949;-73
2022/04/07 16:03:23;;;;;;;;;;;;;;;;;;2199468;59;1691;-73
2022/04/07 16:05:56;;;;;;;;;;;;;;;;;;2210886;59;1826;-74
2022/04/07 16:08:30;;;;;;;;;;;;;;;;;;2200109;67;1263;-73
2022/04/07 16:11:06;;;;;;;;;;;;;;;;;;2199645;59;1530;-74
2022/04/07 16:13:42;;;;;;;;;;;;;;;;;;2199352;59;1440;-74
2022/04/07 16:16:15;;;;;;;;;;;;;;;;;;2199714;67;1154;-74
2022/04/07 16:18:49;;;;;;;;;;;;;;;;;;2199454;59;1981;-73
2022/04/07 16:21:22;;;;;;;;;;;;;;;;;;2199672;59;1726;-73
2022/04/07 16:23:55;;;;;;;;;;;;;;;;;;2199768;67;1274;-73
2022/04/07 16:26:31;;;;;;;;;;;;;;;;;;2211830;59;1324;-75
2022/04/07 16:29:04;;;;;;;;;;;;;;;;;;2201489;59;1932;-74
2022/04/07 16:31:38;;;;;;;;;;;;;;;;;;2200356;59;1238;-75
2022/04/07 16:34:15;;;;;;;;;;;;;;;;;;2198706;59;2153;-73
2022/04/07 16:36:49;;;;;;;;;;;;;;;;;;2198996;59;2211;-73
2022/04/07 16:39:22;;;;;;;;;;;;;;;;;;2200115;60;1223;-74
2022/04/07 16:41:58;;;;;;;;;;;;;;;;;;2199895;59;1626;-74
2022/04/07 16:44:31;;;;;;;;;;;;;;;;;;2200064;59;1390;-74
2022/04/07 16:47:04;;;;;;;;;;;;;;;;;;2200521;59;1212;-73
2022/04/07 16:49:38;;;;;;;;;;;;;;;;;;2200160;67;1937;-74
2022/04/07 16:52:11;;;;;;;;;;;;;;;;;;2200038;67;1322;-74
2022/04/07 16:54:44;;;;;;;;;;;;;;;;;;2200142;59;1131;-74
2022/04/07 16:57:21;;;;;;;;;;;;;;;;;;2200455;67;1109;-75
2022/04/07 16:59:55;;;;;;;;;;;;;;;;;;2200659;59;1373;-74
2022/04/07 17:02:29;;;;;;;;;;;;;;;;;;2203052;59;1726;-74
2022/04/07 17:05:02;;;;;;;;;;;;;;;;;;2211687;59;1838;-74
2022/04/07 17:07:35;;;;;;;;;;;;;;;;;;2200198;67;1235;-76
2022/04/07 17:10:09;;;;;;;;;;;;;;;;;;2200201;59;1938;-73
2022/04/07 17:12:45;;;;;;;;;;;;;;;;;;2199627;59;1310;-74
2022/04/07 17:15:19;;;;;;;;;;;;;;;;;;2199694;59;1195;-74
2022/04/07 17:17:52;;;;;;;;;;;;;;;;;;2200230;59;1212;-74
2022/04/07 17:20:25;;;;;;;;;;;;;;;;;;2199982;59;2023;-73
2022/04/07 17:22:58;;;;;;;;;;;;;;;;;;2211679;59;1715;-74
2022/04/07 17:25:32;;;;;;;;;;;;;;;;;;2199745;59;1966;-74
2022/04/07 17:28:08;;;;;;;;;;;;;;;;;;2199884;67;1287;-74
2022/04/07 17:30:41;;;;;;;;;;;;;;;;;;2199809;59;1926;-75
2022/04/07 17:33:14;;;;;;;;;;;;;;;;;;2202009;59;1211;-74
2022/04/07 17:35:47;;;;;;;;;;;;;;;;;;2198981;59;2554;-73
2022/04/07 17:38:21;;;;;;;;;;;;;;;;;;2199389;59;2464;-74
2022/04/07 17:40:54;;;;;;;;;;;;;;;;;;2200251;59;1889;-75
2022/04/07 17:43:30;;;;;;;;;;;;;;;;;;2200297;59;1798;-74
2022/04/07 17:46:03;;;;;;;;;;;;;;;;;;2211973;59;1302;-74
2022/04/07 17:48:37;;;;;;;;;;;;;;;;;;2200051;59;1718;-75
2022/04/07 17:51:10;;;;;;;;;;;;;;;;;;2199411;59;1940;-74
2022/04/07 17:53:44;;;;;;;;;;;;;;;;;;2200234;67;1208;-74
2022/04/07 17:56:17;;;;;;;;;;;;;;;;;;2199548;59;1683;-74